Time;durP1;ratioP1;P1;durP2;ratioP2;P2;SDS_P1;SDS_P2;PMS_P1;PMS_P2;Temp;Humidity;BMP_temperature;BMP_pressure;BME280_temperature;BME280_humidity;BME280_pressure;Samples;Min_cycle;Max_cycle;Signal;HPM_P1;HPM_P2
2022/03/25 08:13:57;;;;;;;13.75;7.55;;;;;;;12.18;33.00;100825.94;4994527;28;20492;-74
2022/03/25 08:16:22;;;;;;;11.77;7.72;;;;;;;12.35;32.27;100836.91;5013591;28;20037;-74
2022/03/25 08:18:48;;;;;;;14.13;7.47;;;;;;;12.50;34.13;100827.91;5013387;28;20022;-74
2022/03/25 08:21:14;;;;;;;13.02;8.25;;;;;;;12.65;33.08;100818.09;5013438;28;20037;-74
2022/03/25 08:29:11;;;;;;;10.40;6.25;;;;;;;12.84;31.65;100811.81;5013298;28;20052;-73
2022/03/25 08:31:36;;;;;;;12.98;7.30;;;;;;;12.81;33.96;100824.66;5013308;28;20026;-74
2022/03/25 08:34:03;;;;;;;12.88;6.53;;;;;;;13.02;33.37;100827.09;5013443;28;20500;-73
2022/03/25 08:36:29;;;;;;;12.48;7.70;;;;;;;12.99;31.86;100818.34;5012924;28;20022;-74
2022/03/25 08:38:55;;;;;;;11.20;6.80;;;;;;;12.95;33.79;100814.75;5012219;28;20026;-74
2022/03/25 08:41:20;;;;;;;12.25;7.55;;;;;;;13.07;31.37;100825.53;5013012;28;20048;-74
2022/03/25 08:43:47;;;;;;;14.18;7.00;;;;;;;13.14;30.78;100821.41;5012980;28;20036;-74
2022/03/25 08:46:13;;;;;;;13.63;7.45;;;;;;;13.22;30.90;100816.47;5012971;28;20022;-73
2022/03/25 08:48:39;;;;;;;11.45;7.13;;;;;;;13.51;30.12;100808.75;5013052;28;20829;-74
2022/03/25 08:51:05;;;;;;;14.70;7.88;;;;;;;13.61;29.67;100800.41;5012809;28;20512;-74
2022/03/25 08:53:30;;;;;;;13.55;8.02;;;;;;;13.77;29.65;100806.03;5012874;28;20034;-73
2022/03/25 08:55:56;;;;;;;13.65;7.70;;;;;;;13.87;28.36;100802.91;5011442;28;20139;-73
2022/03/25 08:58:21;;;;;;;14.27;6.65;;;;;;;13.82;28.92;100800.16;5027122;28;20124;-73
2022/03/25 09:00:47;;;;;;;14.20;7.03;;;;;;;13.77;28.71;100806.03;5032596;28;20539;-73
2022/03/25 09:03:12;;;;;;;10.85;6.50;;;;;;;13.59;29.88;100792.59;5032525;28;20562;-73
2022/03/25 09:05:38;;;;;;;16.20;7.20;;;;;;;13.81;30.29;100801.00;5032578;28;20101;-74
2022/03/25 09:08:04;;;;;;;12.88;6.95;;;;;;;13.63;28.51;100754.63;5032442;28;20106;-73
2022/03/25 09:10:29;;;;;;;12.45;6.80;;;;;;;13.85;28.49;100787.25;5032286;28;20040;-73
2022/03/25 09:12:55;;;;;;;14.80;7.93;;;;;;;13.96;28.64;100784.97;5032126;28;20053;-73
2022/03/25 09:15:22;;;;;;;10.20;7.22;;;;;;;14.06;28.35;100780.94;5032036;28;20053;-73
2022/03/25 09:17:49;;;;;;;14.35;7.97;;;;;;;14.21;28.35;100768.34;5032311;28;20025;-73
2022/03/25 09:20:15;;;;;;;14.48;7.70;;;;;;;14.43;28.23;100784.53;5029913;28;20045;-73
2022/03/25 09:22:41;;;;;;;11.85;7.97;;;;;;;14.19;27.44;100779.53;5031876;28;20033;-73
2022/03/25 09:25:08;;;;;;;13.10;7.50;;;;;;;14.35;28.29;100781.69;5032032;28;20030;-73
2022/03/25 09:27:34;;;;;;;17.60;8.65;;;;;;;14.52;28.37;100770.91;5031789;28;20136;-73
2022/03/25 09:30:00;;;;;;;12.85;7.55;;;;;;;14.63;27.53;100778.94;5032077;28;20029;-73
2022/03/25 09:32:25;;;;;;;27.23;8.93;;;;;;;14.49;27.40;100781.19;5031783;28;20052;-73
2022/03/25 09:35:10;;;;;;;18.42;8.50;;;;;;;14.53;26.81;100783.91;5031876;28;20026;-73
2022/03/25 09:37:47;;;;;;;13.73;8.38;;;;;;;14.75;26.69;100787.09;5031580;28;20477;-73
2022/03/25 09:40:18;;;;;;;14.88;7.97;;;;;;;14.82;27.17;100777.72;5031503;28;20036;-73
2022/03/25 09:42:45;;;;;;;15.63;8.13;;;;;;;14.88;28.42;100791.75;5031735;28;20030;-73
2022/03/25 09:45:13;;;;;;;12.55;6.82;;;;;;;14.80;27.24;100779.41;5031570;28;20071;-73
2022/03/25 09:47:39;;;;;;;14.43;7.88;;;;;;;14.95;26.75;100782.38;5031499;28;20079;-73
2022/03/25 09:50:08;;;;;;;14.95;7.68;;;;;;;15.12;26.63;100774.97;5030984;28;20079;-72
2022/03/25 09:52:34;;;;;;;16.88;8.63;;;;;;;15.32;26.97;100772.81;5031338;28;20051;-74
2022/03/25 09:55:01;;;;;;;16.30;8.25;;;;;;;15.23;28.17;100774.34;5030339;28;20485;-73
2022/03/25 09:57:27;;;;;;;14.10;7.90;;;;;;;14.96;27.19;100720.88;5031520;28;20033;-73
2022/03/25 09:59:55;;;;;;;14.48;7.72;;;;;;;15.11;26.87;100762.81;5031372;28;20044;-73
2022/03/25 10:02:21;;;;;;;13.83;8.23;;;;;;;15.12;26.28;100724.69;5031447;28;20104;-73
2022/03/25 10:04:48;;;;;;;23.40;8.48;;;;;;;15.18;26.46;100691.91;5031142;28;20343;-73
2022/03/25 10:07:17;;;;;;;14.52;8.20;;;;;;;15.51;27.21;100757.63;5030976;28;20519;-73
2022/03/25 10:09:44;;;;;;;17.20;8.30;;;;;;;15.49;26.79;100715.97;5031260;28;20037;-73
2022/03/25 10:12:27;;;;;;;16.33;8.60;;;;;;;15.95;25.78;100749.88;5031252;28;20026;-73
2022/03/25 10:15:20;;;;;;;19.60;8.32;;;;;;;16.14;26.40;100756.31;5031256;28;20055;-73
2022/03/25 10:17:46;;;;;;;13.75;8.02;;;;;;;15.91;25.56;100752.38;4992916;28;20180;-73
2022/03/25 10:20:11;;;;;;;13.18;8.02;;;;;;;15.94;26.41;100744.66;4998926;28;20050;-73
2022/03/25 10:22:37;;;;;;;17.98;9.35;;;;;;;15.79;25.44;100725.22;4989056;28;20041;-73
2022/03/25 10:25:09;;;;;;;14.30;7.68;;;;;;;16.20;26.14;100744.25;4972393;28;20517;-73
2022/03/25 10:27:35;;;;;;;15.23;8.32;;;;;;;16.41;27.33;100742.03;4988717;28;20037;-73
2022/03/25 10:30:05;;;;;;;13.60;7.35;;;;;;;16.26;25.62;100733.94;5004890;28;20630;-74
2022/03/25 10:32:31;;;;;;;19.13;10.45;;;;;;;16.39;26.85;100742.88;5004863;28;20453;-74
2022/03/25 10:35:14;;;;;;;16.55;7.63;;;;;;;16.58;26.63;100734.47;5007662;28;20038;-74
2022/03/25 10:37:56;;;;;;;15.25;8.25;;;;;;;16.90;27.50;100728.91;5007994;28;20034;-73
2022/03/25 10:40:22;;;;;;;14.48;8.35;;;;;;;17.16;26.50;100725.84;5007644;28;20404;-74
2022/03/25 10:43:17;;;;;;;17.10;9.18;;;;;;;17.25;25.50;100712.06;5007970;28;20046;-74
2022/03/25 10:45:42;;;;;;;21.95;8.68;;;;;;;17.26;24.50;100693.81;4949939;29;20039;-74
2022/03/25 10:48:22;;;;;;;17.73;9.73;;;;;;;17.28;24.97;100712.06;4950051;29;20035;-74
2022/03/25 10:50:59;;;;;;;19.38;9.48;;;;;;;16.93;24.68;100702.91;4936784;29;20118;-74
2022/03/25 10:53:27;;;;;;;29.73;9.43;;;;;;;17.22;27.13;100706.78;4948819;28;20031;-76
2022/03/25 10:55:55;;;;;;;18.50;9.50;;;;;;;17.26;25.42;100708.59;4992679;28;20093;-75
2022/03/25 10:58:21;;;;;;;15.82;8.85;;;;;;;17.41;24.59;100700.94;4996100;28;20140;-77
2022/03/25 11:00:47;;;;;;;19.10;8.25;;;;;;;17.59;24.73;100699.41;5004968;28;20034;-75
2022/03/25 11:03:16;;;;;;;21.00;9.23;;;;;;;17.68;24.67;100696.03;5007390;28;20050;-75
2022/03/25 11:05:43;;;;;;;17.52;9.32;;;;;;;17.90;26.01;100686.69;4987301;28;20030;-73
2022/03/25 11:08:09;;;;;;;22.55;8.73;;;;;;;18.08;24.59;100683.41;5000875;28;20029;-76
2022/03/25 11:10:35;;;;;;;18.27;9.43;;;;;;;18.23;26.54;100680.97;4999421;28;20084;-76
2022/03/25 11:13:03;;;;;;;13.77;8.65;;;;;;;18.13;24.63;100668.69;4990919;28;20399;-75
2022/03/25 11:15:31;;;;;;;17.17;9.32;;;;;;;18.29;24.25;100680.13;4990197;28;20124;-77
2022/03/25 11:17:57;;;;;;;18.27;9.07;;;;;;;18.17;23.81;100651.25;4990960;28;20402;-74
2022/03/25 11:20:25;;;;;;;15.15;8.20;;;;;;;18.32;24.15;100661.88;4988998;28;20113;-72
2022/03/25 11:23:04;;;;;;;14.50;9.02;;;;;;;18.13;25.00;100634.72;5019139;28;20136;-72
2022/03/25 11:25:31;;;;;;;17.25;8.48;;;;;;;18.15;25.05;100658.25;5031127;28;20080;-72
2022/03/25 11:28:04;;;;;;;15.20;8.43;;;;;;;18.08;24.96;100649.44;5032220;28;20032;-72
2022/03/25 11:30:35;;;;;;;15.32;8.30;;;;;;;18.15;25.49;100656.50;5031919;28;20120;-71
2022/03/25 11:33:03;;;;;;;15.63;9.27;;;;;;;18.34;24.43;100648.81;5031808;28;20037;-72
2022/03/25 11:35:37;;;;;;;19.08;9.32;;;;;;;18.30;24.83;100652.25;5033120;28;20060;-76
2022/03/25 11:38:12;;;;;;;15.82;8.98;;;;;;;18.36;24.91;100626.19;5031746;28;20563;-76
2022/03/25 11:40:44;;;;;;;21.55;9.40;;;;;;;18.47;25.50;100648.03;5031219;28;20485;-74
2022/03/25 11:43:18;;;;;;;12.80;8.60;;;;;;;18.31;23.45;100644.44;5029960;28;20511;-74
2022/03/25 11:46:06;;;;;;;15.00;10.13;;;;;;;18.35;25.28;100640.97;5029185;28;20033;-74
2022/03/25 11:48:34;;;;;;;22.13;9.32;;;;;;;18.47;24.54;100629.75;5031501;28;20489;-76
2022/03/25 11:51:00;;;;;;;18.35;9.55;;;;;;;18.55;24.61;100617.56;5028024;28;20034;-74
2022/03/25 11:53:26;;;;;;;16.13;9.00;;;;;;;18.33;26.04;100603.50;5024380;28;20056;-74
2022/03/25 11:56:03;;;;;;;13.40;8.82;;;;;;;18.25;24.40;100633.94;5013715;28;20475;-73
2022/03/25 11:58:33;;;;;;;13.60;9.02;;;;;;;18.23;23.71;100594.72;5032153;28;20068;-72
2022/03/25 12:01:19;;;;;;;17.52;10.15;;;;;;;18.70;23.64;100615.94;5030007;28;20120;-73
2022/03/25 12:03:49;;;;;;;18.67;10.20;;;;;;;18.88;25.81;100616.03;5030946;28;20083;-72
2022/03/25 12:06:47;;;;;;;18.38;9.10;;;;;;;18.89;23.30;100602.09;5032660;28;20095;-72
2022/03/25 12:09:18;;;;;;;20.90;9.27;;;;;;;19.00;23.47;100617.00;5031985;28;20087;-73
2022/03/25 12:11:56;;;;;;;15.77;10.30;;;;;;;19.16;24.16;100610.09;5028962;28;20029;-73
2022/03/25 12:14:31;;;;;;;14.52;10.00;;;;;;;19.13;24.14;100571.69;5031133;28;20085;-72
2022/03/25 12:17:01;;;;;;;15.50;10.18;;;;;;;19.48;23.81;100598.84;5028135;28;20025;-72
2022/03/25 12:19:28;;;;;;;15.95;10.38;;;;;;;19.42;25.85;100607.56;5030523;28;20037;-70
2022/03/25 12:21:54;;;;;;;18.48;11.27;;;;;;;19.55;25.90;100605.81;5030928;28;20036;-72
2022/03/25 12:24:21;;;;;;;16.25;11.13;;;;;;;19.46;24.52;100606.69;5031214;28;20580;-71
2022/03/25 12:26:58;;;;;;;20.85;11.00;;;;;;;19.69;25.00;100598.03;5031798;28;20096;-72
2022/03/25 12:29:44;;;;;;;21.55;11.60;;;;;;;19.72;25.13;100600.63;5030534;28;20033;-72
2022/03/25 12:32:15;;;;;;;20.17;12.02;;;;;;;19.39;23.37;100565.66;5031709;28;20506;-74
2022/03/25 12:35:03;;;;;;;22.30;11.70;;;;;;;19.59;23.56;100594.50;5030629;28;20017;-74
2022/03/25 12:37:34;;;;;;;19.45;12.20;;;;;;;19.32;24.00;100600.56;5030792;28;20029;-74
2022/03/25 12:40:12;;;;;;;26.42;12.80;;;;;;;19.17;23.03;100538.56;5031852;28;20404;-74
2022/03/25 12:42:38;;;;;;;25.83;14.52;;;;;;;19.41;23.63;100590.09;5045569;28;20041;-73
2022/03/25 12:45:05;;;;;;;24.90;18.58;;;;;;;19.34;23.41;100590.94;5031487;28;20412;-74
2022/03/25 12:47:36;;;;;;;20.00;14.95;;;;;;;19.41;24.56;100584.84;5030833;28;20477;-73
2022/03/25 12:50:03;;;;;;;20.10;14.65;;;;;;;19.44;27.02;100574.41;5031485;28;20022;-74
2022/03/25 12:52:29;;;;;;;17.48;12.43;;;;;;;19.40;23.82;100557.81;5010065;28;20402;-74
2022/03/25 12:55:04;;;;;;;22.90;11.88;;;;;;;19.44;25.05;100573.50;5026469;28;20079;-73
2022/03/25 12:57:34;;;;;;;25.98;14.55;;;;;;;19.51;26.37;100573.53;5025683;28;20033;-72
2022/03/25 13:00:00;;;;;;;18.23;13.98;;;;;;;19.43;23.92;100537.72;5029268;28;20034;-72
2022/03/25 13:02:31;;;;;;;20.98;13.57;;;;;;;19.69;24.91;100566.59;5031573;28;20057;-73
2022/03/25 13:05:14;;;;;;;21.13;14.07;;;;;;;19.76;25.05;100575.31;5029623;28;20492;-72
2022/03/25 13:07:46;;;;;;;21.55;13.90;;;;;;;19.48;22.62;100572.66;5031852;28;20032;-71
2022/03/25 13:10:12;;;;;;;21.05;13.20;;;;;;;19.23;22.50;100533.34;5032487;28;20053;-72
2022/03/25 13:12:41;;;;;;;20.23;13.20;;;;;;;19.48;21.94;100559.56;5030794;28;20064;-72
2022/03/25 13:15:09;;;;;;;35.50;16.40;;;;;;;19.42;24.08;100572.66;5031350;28;20084;-71
2022/03/25 13:17:46;;;;;;;33.78;16.40;;;;;;;19.05;23.79;100535.03;5030785;28;20555;-73
2022/03/25 13:20:34;;;;;;;22.38;14.10;;;;;;;19.28;23.03;100568.25;5028743;28;20083;-72
2022/03/25 13:23:10;;;;;;;17.08;12.38;;;;;;;19.34;23.96;100573.50;5028368;28;20021;-73
2022/03/25 13:25:45;;;;;;;18.83;13.05;;;;;;;19.49;25.14;100577.00;5028342;28;20508;-73
2022/03/25 13:28:14;;;;;;;23.90;13.43;;;;;;;19.14;22.91;100570.84;5029537;28;20037;-72
2022/03/25 13:30:42;;;;;;;19.75;12.73;;;;;;;19.01;22.45;100530.66;5029518;28;20103;-73
2022/03/25 13:33:10;;;;;;;19.63;12.73;;;;;;;19.09;22.33;100572.56;5022574;28;20045;-72
2022/03/25 13:35:45;;;;;;;18.85;12.45;;;;;;;18.98;23.41;100564.66;5025847;28;20397;-72
2022/03/25 13:38:17;;;;;;;26.42;15.02;;;;;;;18.93;23.72;100561.16;5025007;28;20556;-72
2022/03/25 13:40:46;;;;;;;24.33;14.80;;;;;;;18.61;23.60;100554.00;5018371;28;20057;-72
2022/03/25 13:43:13;;;;;;;22.63;13.57;;;;;;;18.41;22.51;100572.19;5031057;28;20030;-72
2022/03/25 13:45:56;;;;;;;19.23;13.10;;;;;;;18.56;24.58;100579.25;5026231;28;20037;-72
2022/03/25 13:48:22;;;;;;;22.40;14.32;;;;;;;18.64;22.81;100576.66;5031992;28;20029;-72
2022/03/25 13:50:48;;;;;;;19.33;13.63;;;;;;;18.73;22.16;100571.50;5031870;28;20105;-72
2022/03/25 13:53:14;;;;;;;18.80;13.77;;;;;;;18.75;24.50;100559.28;5031889;28;20033;-72
2022/03/25 13:55:43;;;;;;;21.17;13.23;;;;;;;18.97;26.01;100556.81;5031747;28;20466;-72
2022/03/25 13:58:19;;;;;;;17.73;11.70;;;;;;;18.88;22.70;100568.94;5046127;28;20588;-72
2022/03/25 14:00:52;;;;;;;17.65;12.32;;;;;;;18.84;24.28;100566.31;5031538;28;20025;-72
2022/03/25 14:03:28;;;;;;;20.52;11.95;;;;;;;18.87;22.29;100575.03;5031734;28;20037;-72
2022/03/25 14:05:53;;;;;;;14.70;11.75;;;;;;;18.76;22.05;100542.75;5031636;28;20036;-72
2022/03/25 14:08:32;;;;;;;16.17;11.75;;;;;;;19.04;24.37;100571.66;5031826;28;20029;-72
2022/03/25 14:11:00;;;;;;;21.05;13.10;;;;;;;19.07;23.07;100583.00;5031404;28;20472;-72
2022/03/25 14:13:25;;;;;;;17.92;11.70;;;;;;;19.14;23.29;100580.41;5031845;28;20037;-72
2022/03/25 14:15:51;;;;;;;20.30;12.73;;;;;;;19.20;22.67;100576.09;5031273;28;20106;-72
2022/03/25 14:18:18;;;;;;;17.67;11.98;;;;;;;19.15;23.04;100577.81;5031377;28;20026;-73
2022/03/25 14:20:44;;;;;;;18.55;12.75;;;;;;;19.04;25.56;100580.41;5031146;28;20436;-72
2022/03/25 14:23:11;;;;;;;17.17;12.27;;;;;;;19.15;23.55;100579.53;5031312;28;20029;-72
2022/03/25 14:25:37;;;;;;;19.92;11.57;;;;;;;18.98;22.43;100555.94;5031459;28;20021;-72
2022/03/25 14:28:07;;;;;;;21.00;11.75;;;;;;;18.92;23.28;100544.56;5031530;28;20028;-72
2022/03/25 14:30:33;;;;;;;16.98;10.75;;;;;;;19.13;23.26;100578.66;5031304;28;20112;-72
2022/03/25 14:32:59;;;;;;;15.23;10.82;;;;;;;18.79;21.92;100576.78;5031275;28;20714;-72
2022/03/25 14:35:25;;;;;;;16.23;10.35;;;;;;;18.81;22.16;100577.63;5028988;28;20045;-72
2022/03/25 14:37:51;;;;;;;18.08;10.30;;;;;;;18.57;21.69;100579.25;5030969;28;20025;-72
2022/03/25 14:40:17;;;;;;;20.67;7.93;;;;;;;18.25;20.09;100552.91;5031140;28;20455;-72
2022/03/25 14:42:42;;;;;;;16.20;9.00;;;;;;;18.45;21.47;100587.00;5031327;28;20026;-72
2022/03/25 14:45:08;;;;;;;22.20;7.97;;;;;;;18.36;21.01;100600.91;5031414;28;20025;-72
2022/03/25 14:47:36;;;;;;;11.02;6.72;;;;;;;18.17;19.77;100604.22;5031027;28;20112;-72
2022/03/25 14:50:02;;;;;;;20.77;9.02;;;;;;;18.17;18.56;100594.69;5030994;28;20457;-72
2022/03/25 14:52:29;;;;;;;13.30;6.50;;;;;;;18.02;18.38;100605.88;5030863;28;20523;-72
2022/03/25 14:54:55;;;;;;;15.63;5.65;;;;;;;17.80;18.59;100602.16;5045446;28;20185;-72
2022/03/25 14:57:22;;;;;;;19.23;5.60;;;;;;;17.81;18.55;100611.75;5031030;28;20120;-72
2022/03/25 14:59:49;;;;;;;29.13;7.13;;;;;;;17.76;17.33;100616.91;5030881;28;20033;-73
2022/03/25 15:02:16;;;;;;;13.65;4.72;;;;;;;17.73;17.58;100606.47;5030852;28;20036;-73
2022/03/25 15:04:41;;;;;;;14.10;5.05;;;;;;;17.72;17.47;100609.03;5028698;28;20076;-73
2022/03/25 15:07:07;;;;;;;12.32;5.10;;;;;;;17.58;16.75;100621.94;5030658;28;20060;-73
2022/03/25 15:09:33;;;;;;;13.68;4.38;;;;;;;17.47;16.72;100614.03;5031122;28;20045;-73
2022/03/25 15:11:59;;;;;;;7.95;4.80;;;;;;;17.35;16.79;100614.75;5030758;28;20562;-73
2022/03/25 15:14:25;;;;;;;8.90;4.45;;;;;;;17.36;17.13;100631.28;5030811;28;20045;-72
2022/03/25 15:16:52;;;;;;;8.30;4.13;;;;;;;17.39;17.47;100641.75;5030745;28;20033;-73
2022/03/25 15:19:18;;;;;;;7.43;4.47;;;;;;;17.32;17.20;100643.44;5030498;28;20487;-73
2022/03/25 15:21:44;;;;;;;9.13;4.50;;;;;;;17.22;16.87;100645.06;5030495;28;20105;-73
2022/03/25 15:24:10;;;;;;;16.25;8.32;;;;;;;17.22;17.74;100652.88;5030799;28;20378;-73
2022/03/25 15:26:35;;;;;;;11.93;6.30;;;;;;;17.12;18.44;100656.19;5030787;28;20100;-73
2022/03/25 15:29:02;;;;;;;11.32;5.72;;;;;;;16.76;18.64;100621.81;5030664;28;20079;-73
2022/03/25 15:34:27;;;;;;;10.00;5.15;;;;;;;16.97;19.92;100681.25;5030694;28;20087;-73
2022/03/25 15:37:00;;;;;;;10.98;5.20;;;;;;;16.84;20.04;100674.06;5030491;28;20065;-73
2022/03/25 15:42:11;;;;;;;10.48;5.93;;;;;;;16.43;21.05;100649.09;5030438;28;20032;-74
2022/03/25 15:44:37;;;;;;;10.98;5.32;;;;;;;16.63;20.55;100698.06;5030300;28;20029;-74
2022/03/25 15:47:03;;;;;;;7.25;5.10;;;;;;;16.25;20.50;100659.22;5031779;28;20025;-74
2022/03/25 15:49:29;;;;;;;12.75;5.93;;;;;;;16.16;21.10;100670.38;5034371;28;20039;-73
2022/03/25 15:51:56;;;;;;;19.58;6.65;;;;;;;16.25;22.41;100688.78;5034305;28;20040;-73
2022/03/25 15:54:22;;;;;;;14.80;6.97;;;;;;;16.38;23.46;100730.69;5034011;28;20029;-73
2022/03/25 15:56:47;;;;;;;10.88;6.90;;;;;;;16.11;23.47;100716.31;5033959;28;20496;-72
2022/03/25 15:59:13;;;;;;;15.45;10.07;;;;;;;16.11;24.26;100744.94;5033787;28;20026;-73
2022/03/25 16:01:38;;;;;;;13.00;8.30;;;;;;;15.96;24.26;100746.44;5033943;28;20504;-73
2022/03/25 16:04:04;;;;;;;17.63;10.48;;;;;;;15.79;24.95;100742.59;5033985;28;20420;-73
2022/03/25 16:06:32;;;;;;;15.32;9.15;;;;;;;15.67;25.39;100749.28;5033946;28;20096;-74
2022/03/25 16:08:58;;;;;;;15.63;10.02;;;;;;;15.54;25.47;100757.69;5033672;28;20039;-73
2022/03/25 16:11:25;;;;;;;16.13;10.52;;;;;;;15.53;25.41;100768.94;5033797;28;20499;-74
2022/03/25 16:13:51;;;;;;;26.98;16.83;;;;;;;15.26;26.25;100772.69;5033428;28;20029;-74
2022/03/25 16:16:17;;;;;;;42.80;26.55;;;;;;;15.11;26.54;100778.41;5033848;28;20391;-73
2022/03/25 16:18:43;;;;;;;25.40;19.65;;;;;;;14.77;26.32;100753.34;5033817;28;20025;-73
2022/03/25 16:21:09;;;;;;;21.83;15.82;;;;;;;14.83;26.17;100797.69;5033640;28;20025;-73
2022/03/25 16:23:34;;;;;;;18.23;10.30;;;;;;;14.67;26.82;100807.69;5033596;28;20038;-73
2022/03/25 16:26:00;;;;;;;17.75;10.10;;;;;;;14.51;26.81;100815.91;5033355;28;20037;-73
2022/03/25 16:28:26;;;;;;;14.35;6.65;;;;;;;14.02;25.25;100740.16;5031205;28;20038;-73
2022/03/25 16:30:51;;;;;;;12.02;5.65;;;;;;;14.15;24.40;100809.72;5033383;28;20079;-73
2022/03/25 16:33:19;;;;;;;11.27;7.05;;;;;;;13.95;25.51;100813.50;5031235;28;20128;-73
2022/03/25 16:35:47;;;;;;;15.68;8.73;;;;;;;13.91;26.52;100834.16;5033375;28;20049;-73
2022/03/25 16:38:13;;;;;;;10.93;6.88;;;;;;;13.72;27.36;100837.94;5033173;28;20548;-73
2022/03/25 16:40:39;;;;;;;12.57;8.40;;;;;;;13.54;28.41;100846.03;5033030;28;20017;-73
2022/03/25 16:43:06;;;;;;;12.48;7.95;;;;;;;13.46;28.10;100860.50;5033061;28;20018;-73
2022/03/25 16:45:32;;;;;;;10.93;7.18;;;;;;;13.29;28.31;100857.31;5033072;28;20489;-73
2022/03/25 16:47:58;;;;;;;12.55;5.72;;;;;;;13.21;28.03;100866.59;5033147;28;20037;-73
2022/03/25 16:50:23;;;;;;;11.40;6.22;;;;;;;13.21;27.87;100869.19;5032923;28;20025;-73
2022/03/25 16:52:49;;;;;;;13.07;7.22;;;;;;;12.91;28.53;100837.09;5033064;28;20029;-73
2022/03/25 16:55:16;;;;;;;14.32;7.45;;;;;;;13.05;28.72;100907.53;5047482;28;20037;-73
2022/03/25 16:57:41;;;;;;;81.82;15.50;;;;;;;13.05;31.23;100930.00;5032209;28;20032;-73
2022/03/25 17:00:10;;;;;;;162.95;22.10;;;;;;;12.87;33.27;100951.84;5032287;28;20456;-73
2022/03/25 17:02:35;;;;;;;112.57;19.55;;;;;;;12.59;34.74;100953.44;5032872;28;20061;-73
2022/03/25 17:05:01;;;;;;;132.25;19.98;;;;;;;12.24;36.13;100968.53;5033113;28;20061;-72
2022/03/25 17:07:27;;;;;;;143.55;21.92;;;;;;;11.76;37.17;100919.19;5032581;28;20052;-73
2022/03/25 17:09:52;;;;;;;116.78;19.42;;;;;;;11.45;37.63;100926.63;5030573;28;20045;-73
2022/03/25 17:12:18;;;;;;;120.60;19.60;;;;;;;11.45;38.96;100978.34;5032550;28;20691;-73
2022/03/25 17:14:44;;;;;;;85.38;18.23;;;;;;;11.32;40.32;100997.59;5032631;28;20116;-73
2022/03/25 17:17:10;;;;;;;98.90;16.58;;;;;;;11.08;40.98;101007.78;5032585;28;20117;-73
2022/03/25 17:19:36;;;;;;;41.50;10.90;;;;;;;10.68;42.32;101021.53;5032476;28;20120;-73
2022/03/25 17:22:04;;;;;;;31.38;9.65;;;;;;;10.46;44.01;101020.53;5032345;28;20034;-73
2022/03/25 17:24:31;;;;;;;25.08;8.25;;;;;;;10.12;45.60;101029.25;5030206;28;20053;-72
2022/03/25 17:26:56;;;;;;;32.22;9.40;;;;;;;10.09;45.92;101036.81;5036109;28;20415;-73
2022/03/25 17:29:22;;;;;;;15.75;6.85;;;;;;;9.74;47.43;101032.53;5030227;28;20037;-72
2022/03/25 17:31:49;;;;;;;22.58;9.57;;;;;;;9.17;49.20;100987.66;5029566;28;20025;-73
2022/03/25 17:34:14;;;;;;;15.35;6.75;;;;;;;9.20;50.63;101025.56;5023366;28;20030;-73
2022/03/25 17:36:41;;;;;;;18.08;8.23;;;;;;;9.07;51.34;101036.91;5020452;28;20044;-76
2022/03/25 17:39:06;;;;;;;16.67;6.60;;;;;;;8.98;52.02;101031.28;5016249;28;20033;-76
2022/03/25 17:41:32;;;;;;;26.98;6.95;;;;;;;8.79;52.84;101025.16;5014231;28;20099;-73
2022/03/25 17:43:58;;;;;;;20.13;8.23;;;;;;;8.67;53.22;101030.56;5019623;28;20037;-74
2022/03/25 17:46:24;;;;;;;18.92;8.23;;;;;;;8.43;53.09;100988.91;5022340;28;20025;-76
2022/03/25 17:48:50;;;;;;;16.90;7.50;;;;;;;8.78;54.87;101027.66;5020658;28;20470;-75
2022/03/25 17:51:16;;;;;;;25.92;8.57;;;;;;;8.79;53.83;101029.44;5022210;28;20033;-75
2022/03/25 17:53:42;;;;;;;18.88;8.27;;;;;;;8.61;53.90;101021.59;5019598;28;20033;-73
2022/03/25 17:56:07;;;;;;;14.45;7.75;;;;;;;8.78;54.61;101062.00;5013254;28;20026;-77
2022/03/25 17:58:33;;;;;;;14.95;8.75;;;;;;;8.68;55.98;101059.75;5025059;28;20484;-79
2022/03/25 18:01:01;;;;;;;12.57;7.63;;;;;;;8.23;55.52;100998.97;5029237;28;20033;-77
2022/03/25 18:03:28;;;;;;;15.27;8.02;;;;;;;8.61;56.13;101083.38;5030410;28;20026;-78
2022/03/25 18:05:54;;;;;;;20.27;9.30;;;;;;;8.60;56.59;101076.44;5028098;28;20041;-75
2022/03/25 18:08:20;;;;;;;16.10;8.23;;;;;;;8.66;56.51;101081.94;5030480;28;20029;-76
2022/03/25 18:10:46;;;;;;;14.73;8.63;;;;;;;8.55;57.78;101071.06;5030113;28;20060;-75
2022/03/25 18:13:13;;;;;;;18.88;9.98;;;;;;;8.50;58.57;101090.50;5033775;28;20025;-77
2022/03/25 18:15:39;;;;;;;14.50;8.45;;;;;;;8.36;59.35;101112.84;5031095;28;20054;-75
2022/03/25 18:18:08;;;;;;;14.63;8.88;;;;;;;8.28;60.29;101093.56;5031486;28;20122;-75
2022/03/25 18:20:34;;;;;;;16.35;7.63;;;;;;;8.40;59.95;101099.38;5030047;28;20420;-75
2022/03/25 18:22:59;;;;;;;19.15;10.05;;;;;;;8.47;60.93;101126.38;5029602;28;20026;-77
2022/03/25 18:25:25;;;;;;;40.42;12.05;;;;;;;8.44;60.86;101139.91;5028390;28;20060;-76
2022/03/25 18:27:50;;;;;;;12.48;6.78;;;;;;;8.60;60.69;101154.56;5028649;28;20021;-77
2022/03/25 18:30:17;;;;;;;16.05;9.88;;;;;;;8.55;60.27;101140.56;5028900;28;20017;-77
2022/03/25 18:32:43;;;;;;;23.58;11.80;;;;;;;8.79;59.96;101165.91;5028663;28;20048;-76
2022/03/25 18:35:09;;;;;;;17.00;10.05;;;;;;;8.70;60.33;101168.84;5027454;28;20505;-76
2022/03/25 18:37:35;;;;;;;17.45;10.77;;;;;;;8.56;60.49;101161.22;5027211;28;20026;-77
2022/03/25 18:40:03;;;;;;;21.65;10.30;;;;;;;8.63;60.58;101179.59;5026458;28;21018;-73
2022/03/25 18:42:29;;;;;;;20.58;10.65;;;;;;;8.56;60.64;101168.94;5021317;28;20045;-76
2022/03/25 18:44:54;;;;;;;24.33;11.77;;;;;;;8.62;60.96;101193.25;5027460;28;20033;-77
2022/03/25 18:47:21;;;;;;;20.05;9.05;;;;;;;8.68;61.08;101207.34;5027148;28;21218;-76
2022/03/25 18:49:46;;;;;;;22.95;9.73;;;;;;;8.70;60.76;101207.47;5027829;28;20405;-77
2022/03/25 18:52:12;;;;;;;25.27;10.93;;;;;;;8.71;60.95;101204.06;5027427;28;20029;-77
2022/03/25 18:54:39;;;;;;;29.17;10.48;;;;;;;8.63;60.65;101213.06;5027156;28;20513;-77
2022/03/25 18:57:06;;;;;;;25.90;11.05;;;;;;;8.66;61.14;101228.66;5029439;28;20104;-78
2022/03/25 18:59:33;;;;;;;23.90;11.55;;;;;;;8.76;61.38;101249.00;5025872;28;20099;-78
2022/03/25 19:02:00;;;;;;;22.52;10.60;;;;;;;8.49;61.91;101201.97;5025499;28;20091;-77
2022/03/25 19:04:26;;;;;;;15.25;9.35;;;;;;;8.71;61.47;101268.41;5028365;28;20059;-77
2022/03/25 19:06:52;;;;;;;28.50;11.55;;;;;;;8.37;62.63;101213.31;5027477;28;20614;-77
2022/03/25 19:09:20;;;;;;;28.10;12.00;;;;;;;8.38;63.26;101250.22;5025537;28;20128;-76
2022/03/25 19:11:46;;;;;;;20.30;10.70;;;;;;;8.17;63.76;101263.56;5027561;28;20033;-78
2022/03/25 19:14:13;;;;;;;17.73;9.90;;;;;;;8.22;63.78;101280.19;5028817;28;20051;-76
2022/03/25 19:16:38;;;;;;;16.85;10.25;;;;;;;8.16;63.68;101261.81;5021116;28;20028;-76
2022/03/25 19:19:05;;;;;;;11.60;6.65;;;;;;;7.81;64.76;101239.13;5027586;28;20021;-76
2022/03/25 19:21:35;;;;;;;18.60;9.18;;;;;;;7.57;66.56;101265.97;5028547;28;20033;-76
2022/03/25 19:24:01;;;;;;;13.60;8.93;;;;;;;7.37;66.83;101266.44;5031698;28;20033;-77
2022/03/25 19:26:27;;;;;;;16.20;9.93;;;;;;;7.27;67.69;101270.09;5032632;28;20459;-75
2022/03/25 19:28:53;;;;;;;16.55;9.23;;;;;;;7.27;68.93;101312.06;5032331;28;20067;-75
2022/03/25 19:31:19;;;;;;;14.15;8.05;;;;;;;7.32;68.63;101314.94;5031962;28;20028;-76
2022/03/25 19:33:46;;;;;;;14.85;10.00;;;;;;;7.42;69.13;101342.97;5032362;28;20025;-76
2022/03/25 19:36:12;;;;;;;17.58;10.88;;;;;;;7.55;69.11;101370.38;5034736;28;20038;-75
2022/03/25 19:38:38;;;;;;;15.68;10.07;;;;;;;7.71;67.68;101361.94;5032182;28;20060;-76
2022/03/25 19:41:04;;;;;;;17.35;9.90;;;;;;;7.56;67.30;101354.16;5032177;28;20500;-78
2022/03/25 19:43:30;;;;;;;16.92;10.82;;;;;;;7.38;66.72;101324.72;5032799;28;20068;-78
2022/03/25 19:45:59;;;;;;;23.25;9.98;;;;;;;7.68;66.56;101359.16;5032756;28;20080;-77